Willisburg, Kentucky
Current Conditions -  °F | °C
As of 3:35 PM on Saturday 25 Oct 2014 (Local Time) from KDVK Reporting Station
Broken Clouds Broken Clouds  
Wind Chill: 70°   Ceiling: 3700
Heat Index: 70°   Visibility: 10mi
Dew Point: 57°   Wind: 7mph
Humidity: 64%   Direction: 270°W
Pressure: 29.99"   Gusts: NA
Location:  37.81°N, 85.13°W
Report Text: KDVK 251935Z AUTO 27006KT 230V300 10SM BKN037 21/14 A2999 RMK AO2
Loading
Personal Weather Stations






























Interactive Weather Map
Tropical Storm Tracking
New forecast layout! Learn more

10-Day Weather Forecast

Advertisements
Track Severe Weather on mobile